Latest Weather Observations for Swan Hill

IDV60801

Issued at 4:32 am EST Monday 25 July 2016 (issued every 30 minutes, with the page automatically refreshed every 10 minutes)

About weather observations | Map of weather stations | Latest weather observations for VIC | Other Formats
Station Details ID: 077094 Name: SWAN HILL AERODROME Lat: -35.38 Lon: 143.54 Height: 71.0 m
Data from the previous 72 hours. | See also: Recent months at Swan Hill
Date/Time
EST
Temp
°C
App
Temp
°C
Dew
Point
°C
Rel
Hum
%
Delta-T
°C
Wind Press
QNH
hPa
Press
MSL
hPa
Rain since
9am
mm
Dir  Spd
km/h
Gust
km/h
Spd
kts
Gust
kts
25/04:30am 9.1 2.1 6.7 85 1.1 WNW 33 46 18 25 1010.5 1010.6 3.8
25/04:00am 8.9 2.1 6.7 86 1.0 WNW 32 41 17 22 1010.3 1010.4 3.8
25/03:30am 8.9 2.4 6.7 86 1.0 WNW 30 37 16 20 1010.1 1010.2 3.8
25/03:00am 8.8 1.9 6.4 85 1.1 W 32 46 17 25 1010.0 1010.1 3.8
25/02:30am 8.5 1.6 6.5 87 0.9 WNW 32 43 17 23 1009.9 1010.0 3.8
25/02:00am 7.8 1.5 5.8 87 0.9 WNW 28 33 15 18 1009.7 1009.8 3.8
25/01:30am 8.3 1.1 6.1 86 1.0 WNW 33 41 18 22 1009.3 1009.4 3.8
25/01:00am 8.2 0.6 5.8 85 1.1 WNW 35 44 19 24 1008.8 1008.9 3.8
25/12:30am 8.2 0.2 5.7 84 1.1 WNW 37 46 20 25 1008.5 1008.6 3.8
25/12:00am 8.3 0.6 5.4 82 1.3 WNW 35 46 19 25 1008.4 1008.5 3.8
 
Date/Time
EST
Temp
°C
App
Temp
°C
Dew
Point
°C
Rel
Hum
%
Delta-T
°C
Wind Press
QNH
hPa
Press
MSL
hPa
Rain since
9am
mm
Dir  Spd
km/h
Gust
km/h
Spd
kts
Gust
kts
24/11:30pm 8.3 0.5 5.1 80 1.4 NW 35 46 19 25 1008.3 1008.4 3.8
24/11:00pm 8.0 1.6 5.1 82 1.3 NW 28 37 15 20 1008.2 1008.3 3.8
24/10:30pm 8.0 1.2 4.9 81 1.4 NW 30 39 16 21 1008.2 1008.3 3.4
24/10:00pm 7.8 0.9 4.7 81 1.4 NW 30 39 16 21 1008.4 1008.5 3.4
24/09:30pm 7.8 1.3 4.7 81 1.4 NW 28 37 15 20 1008.7 1008.8 3.4
24/09:00pm 7.4 2.1 5.0 85 1.1 NNW 22 28 12 15 1008.9 1009.0 3.2
24/08:30pm 6.8 2.4 5.0 88 0.8 NNW 17 19 9 10 1009.0 1009.1 3.2
24/08:00pm 6.7 1.7 4.7 87 0.9 NW 20 24 11 13 1009.0 1009.1 3.2
24/07:30pm 6.2 1.8 4.8 91 0.6 NW 17 20 9 11 1009.0 1009.1 3.2
24/07:00pm 6.1 2.1 4.7 91 0.6 NNW 15 17 8 9 1008.7 1008.8 3.2
24/06:30pm 6.3 2.6 4.6 89 0.7 NNW 13 17 7 9 1008.6 1008.7 3.2
24/06:00pm 6.7 2.3 4.9 88 0.8 NNW 17 20 9 11 1008.2 1008.3 3.2
24/05:30pm 7.6 3.4 5.6 87 0.9 NW 17 24 9 13 1007.9 1008.0 3.2
24/05:00pm 7.4 1.4 5.5 88 0.9 WNW 26 35 14 19 1008.0 1008.1 3.2
24/04:43pm 7.7 0.4 5.3 85 1.1 NW 33 61 18 33 1008.2 1008.3 2.8
24/04:41pm 8.0 1.3 5.5 84 1.1 NW 30 61 16 33 1008.3 1008.4 2.4
24/04:40pm 8.5 2.3 6.0 84 1.1 NW 28 59 15 32 1008.2 1008.3 2.2
24/04:30pm 8.9 3.5 6.3 84 1.2 NNW 24 30 13 16 1007.8 1007.9 1.2
24/04:00pm 9.5 4.5 6.4 81 1.4 NNW 22 28 12 15 1007.4 1007.5 0.8
24/03:45pm 8.8 1.7 6.4 85 1.1 NW 33 43 18 23 1007.5 1007.6 0.8
24/03:30pm 8.8 -0.2 6.6 86 1.0 WNW 43 59 23 32 1007.9 1008.0 0.4
24/03:18pm 11.2 4.0 5.1 66 2.8 NW 32 59 17 32 1007.8 1007.9 0.0
24/03:00pm 13.0 6.0 1.7 46 4.9 NNW 28 37 15 20 1006.8 1006.9 0.0
24/02:30pm 14.3 6.6 2.5 45 5.2 NNW 32 43 17 23 1007.4 1007.5 0.0
24/02:00pm 14.0 6.5 3.2 48 4.9 NW 32 41 17 22 1008.2 1008.3 0.0
24/01:30pm 12.8 5.0 2.9 51 4.4 NNW 33 46 18 25 1008.5 1008.6 0.0
24/01:00pm 13.7 6.2 3.2 49 4.7 NNW 32 44 17 24 1009.1 1009.2 0.0
24/12:30pm 13.0 6.1 4.7 57 3.8 N 30 37 16 20 1009.7 1009.8 0.0
24/12:00pm 13.2 6.5 5.6 60 3.6 N 30 39 16 21 1010.5 1010.6 0.0
24/11:30am 12.2 5.2 6.0 66 2.9 N 32 37 17 20 1011.0 1011.1 0.0
24/11:00am 11.7 5.5 6.2 69 2.6 N 28 37 15 20 1011.6 1011.7 0.0
24/10:30am 10.9 5.1 6.3 73 2.2 N 26 33 14 18 1011.7 1011.8 0.0
24/10:00am 9.6 3.6 5.2 74 2.0 N 26 33 14 18 1012.1 1012.2 0.0
24/09:30am 8.5 3.5 4.7 77 1.7 N 20 30 11 16 1012.5 1012.6 0.0
24/09:00am 7.1 2.2 3.9 80 1.4 N 19 24 10 13 1012.7 1012.8 0.0
24/08:30am 5.7 1.8 3.5 86 0.9 NNE 13 19 7 10 1012.8 1012.9 0.0
24/08:00am 4.3 1.1 2.8 90 0.6 N 9 11 5 6 1012.9 1013.0 0.0
24/07:30am 4.0 0.3 2.5 90 0.6 N 11 13 6 7 1012.8 1012.9 0.0
24/07:00am 3.5 0.1 1.9 89 0.6 N 9 11 5 6 1013.0 1013.1 0.0
24/06:30am 4.6 0.2 2.6 87 0.8 N 15 19 8 10 1012.9 1013.0 0.0
24/06:00am 5.3 1.0 3.2 86 0.9 N 15 19 8 10 1012.8 1012.9 0.0
24/05:30am 5.1 1.9 3.0 86 0.9 NNW 9 13 5 7 1012.9 1013.0 0.0
24/05:00am 5.1 1.9 2.8 85 0.9 N 9 11 5 6 1013.0 1013.1 0.0
24/04:30am 5.1 1.8 2.6 84 1.0 N 9 11 5 6 1013.1 1013.2 0.0
24/04:00am 4.6 0.9 2.6 87 0.8 N 11 13 6 7 1013.5 1013.6 0.0
24/03:30am 4.2 1.3 2.7 90 0.6 NNW 7 13 4 7 1014.0 1014.1 0.0
24/03:00am 3.9 0.6 2.6 91 0.5 N 9 9 5 5 1013.8 1013.9 0.0
24/02:30am 2.4 -0.5 1.2 92 0.5 NNW 6 7 3 4 1014.4 1014.6 0.0
24/02:00am 1.6 -2.0 0.3 91 0.5 NNW 9 9 5 5 1014.8 1015.0 0.0
24/01:30am 1.2 -2.5 -0.1 91 0.5 NNW 9 9 5 5 1015.0 1015.2 0.0
24/01:00am 1.1 -3.0 -0.4 90 0.5 NNW 11 13 6 7 1015.0 1015.2 0.0
24/12:30am 1.9 -1.4 0.4 90 0.6 NNW 7 9 4 5 1015.1 1015.3 0.0
24/12:00am 1.5 -2.6 0.0 90 0.5 NNW 11 13 6 7 1015.2 1015.4 0.0
 
Date/Time
EST
Temp
°C
App
Temp
°C
Dew
Point
°C
Rel
Hum
%
Delta-T
°C
Wind Press
QNH
hPa
Press
MSL
hPa
Rain since
9am
mm
Dir  Spd
km/h
Gust
km/h
Spd
kts
Gust
kts
23/11:30pm 1.8 -2.6 0.2 89 0.6 NNW 13 15 7 8 1015.4 1015.6 0.0
23/11:00pm 2.4 -0.8 0.6 88 0.7 NNW 7 9 4 5 1015.4 1015.6 0.0
23/10:30pm 2.4 -1.2 0.6 88 0.7 NNW 9 9 5 5 1015.4 1015.6 0.0
23/10:00pm 2.8 -1.1 1.0 88 0.7 NNW 11 11 6 6 1015.4 1015.6 0.0
23/09:30pm 2.7 -0.9 0.6 86 0.8 NNW 9 11 5 6 1015.4 1015.6 0.0
23/09:00pm 4.1 1.2 1.5 83 1.0 WSW 6 9 3 5 1015.3 1015.5 0.0
23/08:30pm 3.7 0.8 1.4 85 0.9 WSW 6 7 3 4 1015.2 1015.4 0.0
23/08:00pm 3.8 0.7 1.4 84 0.9 WSW 7 9 4 5 1015.1 1015.3 0.0
23/07:30pm 4.1 0.6 1.5 83 1.0 WSW 9 9 5 5 1014.9 1015.1 0.0
23/07:00pm 4.6 1.1 1.5 80 1.2 WSW 9 11 5 6 1014.6 1014.8 0.0
23/06:30pm 5.3 1.9 1.8 78 1.4 WSW 9 11 5 6 1014.3 1014.5 0.0
23/06:00pm 7.3 3.6 2.2 70 2.1 WSW 11 13 6 7 1013.9 1014.0 0.0
23/05:30pm 8.2 4.1 2.4 67 2.4 WSW 13 17 7 9 1013.6 1013.7 0.0
23/05:00pm 10.1 5.2 2.2 58 3.4 WSW 17 20 9 11 1013.4 1013.5 0.0
23/04:30pm 10.9 4.1 0.6 49 4.2 WSW 26 33 14 18 1013.3 1013.4 0.0
23/04:00pm 11.4 5.2 1.9 52 4.1 WSW 24 30 13 16 1013.2 1013.3 0.0
23/03:30pm 11.0 4.3 1.5 52 4.0 WSW 26 35 14 19 1013.0 1013.1 0.0
23/03:00pm 11.1 4.0 1.1 50 4.2 WSW 28 39 15 21 1012.7 1012.8 0.0
23/02:30pm 10.7 3.2 1.5 53 3.9 WSW 30 37 16 20 1012.4 1012.5 0.0
23/02:00pm 11.0 3.1 1.3 51 4.1 WSW 32 41 17 22 1012.2 1012.3 0.0
23/01:30pm 11.9 5.0 2.4 52 4.1 SW 28 41 15 22 1012.0 1012.1 0.0
23/01:00pm 11.3 3.3 0.7 48 4.4 WSW 32 44 17 24 1011.9 1012.0 0.0
23/12:38pm 11.2 4.1 1.2 50 4.2 SW 28 46 15 25 1012.1 1012.2 0.0
23/12:30pm 11.2 3.6 0.6 48 4.4 SW 30 44 16 24 1012.1 1012.2 0.0
23/12:00pm 10.7 3.5 0.7 50 4.1 SW 28 39 15 21 1012.1 1012.2 0.0
23/11:30am 10.6 3.5 1.2 52 3.9 SW 28 41 15 22 1012.1 1012.2 0.0
23/11:00am 10.3 2.1 2.7 59 3.3 WSW 35 44 19 24 1012.1 1012.2 0.0
23/10:30am 10.0 2.6 4.2 67 2.6 WSW 32 44 17 24 1012.0 1012.1 0.0
23/10:24am 10.0 2.7 4.6 69 2.4 WSW 32 50 17 27 1011.9 1012.0 0.0
23/10:00am 9.4 2.5 4.6 72 2.1 W 30 41 16 22 1011.4 1011.5 0.0
23/09:30am 8.6 1.4 5.2 79 1.5 W 32 41 17 22 1010.8 1010.9 0.0
23/09:00am 7.9 1.5 5.0 82 1.3 W 28 39 15 21 1010.1 1010.2 3.2
23/08:30am 7.2 2.3 5.0 86 1.0 W 20 28 11 15 1009.6 1009.7 3.2
23/08:00am 6.7 0.6 4.7 87 0.9 W 26 33 14 18 1008.9 1009.0 3.2
23/07:30am 6.4 1.0 4.4 87 0.9 W 22 28 12 15 1008.4 1008.5 3.2
23/07:00am 6.6 1.2 4.6 87 0.9 W 22 28 12 15 1007.5 1007.6 3.2
23/06:30am 7.0 1.7 4.8 86 1.0 W 22 32 12 17 1006.6 1006.7 3.2
23/06:00am 7.5 1.4 5.0 84 1.1 W 26 32 14 17 1005.8 1005.9 3.2
23/05:30am 8.3 0.9 5.1 80 1.4 W 33 46 18 25 1005.0 1005.1 3.2
23/05:00am 8.5 -0.8 5.1 79 1.5 W 43 50 23 27 1004.2 1004.3 3.2
23/04:30am 8.9 -1.4 4.9 76 1.8 W 48 69 26 37 1003.7 1003.8 3.2
23/04:28am 8.9 -1.0 4.9 76 1.8 W 46 69 25 37 1003.5 1003.6 3.2
23/04:00am 8.8 -0.8 4.6 75 1.9 WNW 44 59 24 32 1003.1 1003.3 3.2
23/03:30am 8.6 0.4 4.8 77 1.7 WNW 37 48 20 26 1002.9 1003.1 3.2
23/03:00am 8.1 0.2 4.5 78 1.6 WNW 35 46 19 25 1002.5 1002.6 3.2
23/02:30am 8.2 0.3 4.4 77 1.7 WNW 35 48 19 26 1002.6 1002.8 3.2
23/02:00am 8.7 -0.3 4.5 75 1.9 WNW 41 52 22 28 1002.2 1002.3 3.2
23/01:30am 8.9 0.3 4.9 76 1.8 WNW 39 52 21 28 1002.1 1002.2 3.2
23/01:14am 9.1 0.6 5.1 76 1.8 WNW 39 57 21 31 1002.0 1002.1 3.2
23/01:00am 8.9 0.8 5.1 77 1.7 WNW 37 48 20 26 1002.0 1002.1 3.2
23/12:30am 9.1 0.2 5.3 77 1.7 WNW 41 54 22 29 1001.9 1002.0 3.2
23/12:00am 9.3 0.9 5.5 77 1.7 WNW 39 50 21 27 1001.8 1001.9 3.2
 
Date/Time
EST
Temp
°C
App
Temp
°C
Dew
Point
°C
Rel
Hum
%
Delta-T
°C
Wind Press
QNH
hPa
Press
MSL
hPa
Rain since
9am
mm
Dir  Spd
km/h
Gust
km/h
Spd
kts
Gust
kts
22/11:30pm 9.4 1.0 5.8 78 1.7 WNW 39 57 21 31 1001.6 1001.7 3.2
22/11:06pm 10.2 1.1 6.0 75 1.9 WNW 43 61 23 33 1001.2 1001.3 3.2
22/11:00pm 10.0 1.8 6.5 79 1.6 WNW 39 56 21 30 1001.1 1001.2 3.2
22/10:30pm 10.4 1.9 7.1 80 1.6 WNW 41 54 22 29 1000.9 1001.0 3.2
22/10:00pm 10.7 3.1 7.4 80 1.6 WNW 37 48 20 26 1000.8 1000.9 3.2
22/09:30pm 10.8 2.8 7.5 80 1.6 WNW 39 50 21 27 1000.6 1000.7 3.2
22/09:00pm 11.1 3.6 7.8 80 1.6 WNW 37 48 20 26 1000.7 1000.8 3.2
22/08:30pm 11.4 3.8 7.7 78 1.8 WNW 37 52 20 28 1000.3 1000.4 3.2
22/08:00pm 11.2 5.6 8.8 85 1.2 WNW 28 39 15 21 1000.4 1000.5 3.2
22/07:30pm 11.1 4.9 9.4 89 0.9 WNW 32 43 17 23 1000.4 1000.5 3.2
22/07:19pm 11.1 4.3 9.4 89 0.9 WNW 35 44 19 24 1000.6 1000.7 2.8
22/07:01pm 11.0 4.8 9.4 90 0.8 W 32 50 17 27 1000.5 1000.6 2.4
22/07:00pm 11.0 5.2 9.3 89 0.9 W 30 43 16 23 1000.4 1000.5 2.4
22/06:30pm 10.6 5.8 8.7 88 0.9 WNW 24 32 13 17 999.8 999.9 1.4
22/06:29pm 10.6 5.8 8.7 88 0.9 WNW 24 32 13 17 999.8 999.9 1.4
22/06:17pm 10.6 4.5 8.4 86 1.1 W 30 39 16 21 999.6 999.7 1.2
22/06:00pm 11.5 5.4 8.2 80 1.6 WSW 30 48 16 26 999.6 999.7 0.4
22/05:52pm 12.8 8.7 8.7 76 2.1 WNW 20 48 11 26 999.6 999.7 0.2
22/05:30pm 12.6 9.1 8.7 77 2.0 NW 17 20 9 11 998.9 999.0 0.2
22/05:00pm 14.1 8.5 8.7 70 2.8 NW 28 35 15 19 998.8 998.9 0.2
22/04:30pm 14.7 9.2 9.1 69 2.9 NW 28 37 15 20 999.1 999.2 0.2
22/04:00pm 14.8 9.3 9.0 68 3.0 NW 28 35 15 19 999.1 999.2 0.2
22/03:30pm 14.0 9.2 9.0 72 2.5 NW 24 32 13 17 999.5 999.6 0.2
22/03:00pm 13.9 8.2 8.3 69 2.8 NW 28 37 15 20 999.6 999.7 0.2
22/02:30pm 13.6 7.9 8.2 70 2.7 WNW 28 39 15 21 1000.1 1000.2 0.2
22/02:00pm 13.4 7.1 7.6 68 2.9 NW 30 39 16 21 999.9 1000.0 0.2
22/01:30pm 13.4 7.2 7.8 69 2.8 WNW 30 37 16 20 1000.3 1000.4 0.2
22/01:00pm 13.5 7.4 8.1 70 2.7 NW 30 39 16 21 1000.5 1000.6 0.2
22/12:30pm 13.4 6.1 7.2 66 3.0 NW 35 50 19 27 1001.2 1001.3 0.2
22/12:00pm 13.4 5.4 7.4 67 3.0 WNW 39 54 21 29 1002.0 1002.1 0.2
22/11:46am 14.0 6.0 9.0 72 2.5 W 41 63 22 34 1002.3 1002.4 0.0
22/11:30am 14.7 8.7 10.9 78 2.0 W 33 43 18 23 1002.8 1003.0 0.0
22/11:00am 16.3 11.6 13.2 82 1.7 W 30 37 16 20 1002.4 1002.5 0.0
22/10:38am 16.8 14.9 15.3 91 0.9 WNW 19 24 10 13 1002.0 1002.1 0.0
22/10:30am 16.7 14.8 15.2 91 0.9 NW 19 24 10 13 1002.3 1002.4 0.0
22/10:00am 16.7 14.8 15.2 91 0.9 NW 19 24 10 13 1002.3 1002.4 0.0
22/09:50am 16.7 14.2 15.2 91 0.9 NW 22 28 12 15 1002.4 1002.5 0.0
22/09:30am 16.7 13.8 15.2 91 0.9 WNW 24 33 13 18 1002.9 1003.1 0.0
22/09:09am 16.7 13.5 15.2 91 0.9 NW 26 33 14 18 1002.2 1002.3 0.0
22/09:00am 16.7 13.5 15.2 91 0.9 NW 26 35 14 19 1002.4 1002.5 0.8
22/08:57am 16.7 13.1 15.2 91 0.9 NW 28 35 15 19 1002.2 1002.3 0.8
22/08:30am 16.8 14.2 15.0 89 1.0 NW 22 32 12 17 1002.0 1002.1 0.4
22/08:00am 17.1 14.2 15.1 88 1.2 NNW 24 30 13 16 1002.2 1002.3 0.2
22/07:30am 17.2 13.1 14.8 86 1.4 NW 30 37 16 20 1002.1 1002.2 0.2
22/07:00am 17.1 14.6 15.1 88 1.2 NNW 22 28 12 15 1002.1 1002.2 0.2
22/06:30am 17.2 13.9 15.0 87 1.3 NNW 26 39 14 21 1002.2 1002.3 0.2
22/06:00am 17.2 12.6 15.0 87 1.3 N 33 43 18 23 1001.7 1001.8 0.0
22/05:30am 16.8 12.3 15.0 89 1.0 N 32 41 17 22 1002.0 1002.1 0.0
22/05:00am 16.4 11.8 14.6 89 1.0 N 32 43 17 23 1002.5 1002.6 0.0

Other Formats:

Comma delimited format used in spreadsheet applications
http://www.bom.gov.au/fwo/IDV60801/IDV60801.94843.axf

JavaScript Object Notation format (JSON) in row-major order
http://www.bom.gov.au/fwo/IDV60801/IDV60801.94843.json